Time;durP1;ratioP1;P1;durP2;ratioP2;P2;SDS_P1;SDS_P2;PMS_P1;PMS_P2;Temp;Humidity;BMP_temperature;BMP_pressure;BME280_temperature;BME280_humidity;BME280_pressure;Samples;Min_cycle;Max_cycle;Signal;HPM_P1;HPM_P2
2022/02/06 00:00:14;;;;;;;10.40;3.33;;;;;;;;;;5011454;28;20054;-66
2022/02/06 00:02:44;;;;;;;15.48;3.53;;;;;;;;;;5020695;28;20622;-66
2022/02/06 00:05:12;;;;;;;10.77;3.75;;;;;;;;;;5011839;28;20624;-66
2022/02/06 00:07:38;;;;;;;11.73;3.22;;;;;;;;;;5026069;28;20513;-66
2022/02/06 00:10:05;;;;;;;14.55;3.92;;;;;;;;;;5027806;28;20045;-66
2022/02/06 00:12:36;;;;;;;13.57;3.85;;;;;;;;;;5027125;28;20556;-67
2022/02/06 00:15:02;;;;;;;15.38;4.18;;;;;;;;;;5018044;28;20422;-67
2022/02/06 00:17:30;;;;;;;18.65;4.53;;;;;;;;;;5012568;28;20418;-67
2022/02/06 00:19:57;;;;;;;17.33;4.60;;;;;;;;;;5020133;28;20430;-67
2022/02/06 00:22:40;;;;;;;9.57;3.53;;;;;;;;;;5011756;28;20425;-67
2022/02/06 00:25:16;;;;;;;13.88;3.97;;;;;;;;;;4995705;28;20054;-67
2022/02/06 00:30:24;;;;;;;11.80;3.33;;;;;;;;;;5019624;28;20403;-67
2022/02/06 00:33:00;;;;;;;13.88;3.78;;;;;;;;;;5012086;28;20265;-67
2022/02/06 00:35:39;;;;;;;18.40;3.83;;;;;;;;;;5020064;28;20050;-67
2022/02/06 00:43:07;;;;;;;13.65;3.80;;;;;;;;;;5020823;28;20057;-68
2022/02/06 00:45:33;;;;;;;10.60;3.72;;;;;;;;;;4994257;28;20060;-67
2022/02/06 00:48:00;;;;;;;8.57;3.40;;;;;;;;;;5019388;28;20049;-68
2022/02/06 00:50:27;;;;;;;15.98;3.95;;;;;;;;;;5012188;28;20049;-68
2022/02/06 00:53:09;;;;;;;10.27;3.97;;;;;;;;;;5013201;28;20057;-67
2022/02/06 00:55:35;;;;;;;13.80;4.70;;;;;;;;;;5010349;28;20062;-67
2022/02/06 00:58:01;;;;;;;16.88;3.92;;;;;;;;;;5018819;28;20059;-67
2022/02/06 01:00:28;;;;;;;16.77;4.43;;;;;;;;;;5019848;28;20490;-68
2022/02/06 01:02:54;;;;;;;22.20;4.38;;;;;;;;;;5011092;28;20160;-67
2022/02/06 01:05:41;;;;;;;18.90;3.75;;;;;;;;;;5014692;28;20068;-67
2022/02/06 01:08:07;;;;;;;15.27;4.07;;;;;;;;;;5006037;28;20434;-68
2022/02/06 01:10:34;;;;;;;13.27;4.07;;;;;;;;;;5019528;28;20293;-68
2022/02/06 01:13:14;;;;;;;9.45;2.85;;;;;;;;;;5024842;28;20056;-67
2022/02/06 01:15:47;;;;;;;26.48;3.92;;;;;;;;;;5041275;28;20341;-67
2022/02/06 01:18:21;;;;;;;11.82;4.00;;;;;;;;;;5043825;28;20052;-67
2022/02/06 01:20:56;;;;;;;10.45;3.15;;;;;;;;;;5028434;28;20461;-68
2022/02/06 01:23:31;;;;;;;14.38;4.20;;;;;;;;;;5044061;28;20053;-66
2022/02/06 01:26:06;;;;;;;15.75;4.13;;;;;;;;;;5034220;28;20454;-68
2022/02/06 01:28:38;;;;;;;12.38;3.90;;;;;;;;;;5016408;28;20046;-66
2022/02/06 01:33:40;;;;;;;15.55;4.00;;;;;;;;;;5018483;28;20053;-67
2022/02/06 01:36:23;;;;;;;15.43;4.03;;;;;;;;;;5012298;28;20053;-67
2022/02/06 01:41:24;;;;;;;12.60;4.07;;;;;;;;;;5016347;28;20060;-66
2022/02/06 01:44:03;;;;;;;16.17;3.72;;;;;;;;;;5022598;28;20049;-67
2022/02/06 02:00:35;;;;;;;9.27;3.20;;;;;;;;;;5003289;28;20054;-66
2022/02/06 02:03:31;;;;;;;14.88;3.53;;;;;;;;;;5016268;28;20251;-64
2022/02/06 02:06:30;;;;;;;14.35;3.92;;;;;;;;;;5009645;28;20176;-67
2022/02/06 02:11:46;;;;;;;11.38;3.42;;;;;;;;;;5001453;28;20049;-67
2022/02/06 02:14:38;;;;;;;11.02;2.88;;;;;;;;;;4996999;28;20448;-67
2022/02/06 02:20:10;;;;;;;13.82;3.00;;;;;;;;;;5001976;28;20079;-67
2022/02/06 02:46:29;;;;;;;6.78;2.95;;;;;;;;;;5011965;28;20053;-67
2022/02/06 02:48:57;;;;;;;9.30;2.90;;;;;;;;;;5020768;28;20366;-68
2022/02/06 02:51:26;;;;;;;6.53;2.47;;;;;;;;;;5012672;28;20378;-68
2022/02/06 02:53:58;;;;;;;8.60;3.28;;;;;;;;;;5020363;28;20057;-68
2022/02/06 02:56:38;;;;;;;10.85;3.13;;;;;;;;;;5005114;28;20053;-68
2022/02/06 02:59:14;;;;;;;5.93;2.85;;;;;;;;;;5020460;28;20060;-68
2022/02/06 03:01:53;;;;;;;7.28;3.33;;;;;;;;;;4993049;28;20050;-65
2022/02/06 03:04:19;;;;;;;6.70;2.88;;;;;;;;;;4960394;28;1197739;-68
2022/02/06 03:06:46;;;;;;;5.97;2.70;;;;;;;;;;5012593;28;20576;-66
2022/02/06 03:09:12;;;;;;;12.25;3.33;;;;;;;;;;5029606;28;20414;-66
2022/02/06 03:11:39;;;;;;;8.18;3.17;;;;;;;;;;5018669;28;20064;-66
2022/02/06 03:14:11;;;;;;;9.73;2.90;;;;;;;;;;5032617;28;20053;-67
2022/02/06 03:16:44;;;;;;;5.90;2.60;;;;;;;;;;5022978;28;20571;-66
2022/02/06 03:19:15;;;;;;;9.52;3.00;;;;;;;;;;5013287;28;20053;-67
2022/02/06 03:21:43;;;;;;;10.68;3.38;;;;;;;;;;5021069;28;20406;-66
2022/02/06 03:24:26;;;;;;;6.97;2.90;;;;;;;;;;5013927;28;20481;-66
2022/02/06 03:26:54;;;;;;;7.55;2.97;;;;;;;;;;5020340;28;20049;-67
2022/02/06 03:29:23;;;;;;;11.80;3.33;;;;;;;;;;5021980;28;20053;-67
2022/02/06 03:31:49;;;;;;;;;;;;;;;;;;5013675;28;20065;-67
2022/02/06 03:34:16;;;;;;;10.43;2.50;;;;;;;;;;5021533;28;19931;-66
2022/02/06 03:36:44;;;;;;;9.30;2.75;;;;;;;;;;5010493;28;20788;-66
2022/02/06 03:39:11;;;;;;;10.77;3.25;;;;;;;;;;5017255;28;20148;-66
2022/02/06 03:44:29;;;;;;;6.43;3.17;;;;;;;;;;5020749;28;20416;-65
2022/02/06 03:47:03;;;;;;;11.85;3.80;;;;;;;;;;5021188;28;20309;-65
2022/02/06 03:49:44;;;;;;;9.35;2.92;;;;;;;;;;5012745;28;20055;-65
2022/02/06 03:52:11;;;;;;;13.10;2.92;;;;;;;;;;5020989;28;20041;-66
2022/02/06 03:54:37;;;;;;;6.30;2.47;;;;;;;;;;5012662;28;20045;-66
2022/02/06 03:57:04;;;;;;;7.53;2.40;;;;;;;;;;5020064;28;20053;-65
2022/02/06 03:59:31;;;;;;;11.15;2.40;;;;;;;;;;5012780;28;20042;-65
2022/02/06 04:01:58;;;;;;;8.25;2.20;;;;;;;;;;5014727;28;20053;-65
2022/02/06 04:04:24;;;;;;;3.60;1.90;;;;;;;;;;5017239;28;20072;-65
2022/02/06 04:06:52;;;;;;;14.68;2.72;;;;;;;;;;5012154;28;20053;-65
2022/02/06 04:09:29;;;;;;;7.68;3.15;;;;;;;;;;5021578;28;20049;-65
2022/02/06 04:11:57;;;;;;;9.00;2.88;;;;;;;;;;5015719;28;20058;-65
2022/02/06 04:14:29;;;;;;;6.33;3.07;;;;;;;;;;5036759;28;20056;-65
2022/02/06 04:17:00;;;;;;;4.72;2.40;;;;;;;;;;5026997;28;20617;-65
2022/02/06 04:19:27;;;;;;;6.95;2.30;;;;;;;;;;5039595;28;20060;-65
2022/02/06 04:21:54;;;;;;;4.82;2.30;;;;;;;;;;5039998;28;20053;-65
2022/02/06 04:24:21;;;;;;;10.85;2.95;;;;;;;;;;5032378;28;20049;-66
2022/02/06 04:26:47;;;;;;;8.07;2.90;;;;;;;;;;5040910;28;20049;-65
2022/02/06 04:29:14;;;;;;;6.38;2.55;;;;;;;;;;5011269;28;20053;-66
2022/02/06 04:31:42;;;;;;;6.40;2.58;;;;;;;;;;5014981;28;20050;-66
2022/02/06 04:34:08;;;;;;;6.15;2.78;;;;;;;;;;5011571;28;20350;-66
2022/02/06 04:36:50;;;;;;;6.10;3.15;;;;;;;;;;5020474;28;20060;-66
2022/02/06 04:53:07;;;;;;;4.90;2.70;;;;;;;;;;5012679;28;20565;-66
2022/02/06 05:25:43;;;;;;;9.45;3.67;;;;;;;;;;5034220;28;20048;-66
2022/02/06 05:28:27;;;;;;;11.10;3.33;;;;;;;;;;5019089;28;20519;-66
2022/02/06 05:31:04;;;;;;;6.97;3.58;;;;;;;;;;5019473;28;20132;-66
2022/02/06 05:33:31;;;;;;;8.82;3.67;;;;;;;;;;5010984;28;20049;-65
2022/02/06 05:35:57;;;;;;;12.35;3.85;;;;;;;;;;5019176;28;20057;-66
2022/02/06 05:38:24;;;;;;;9.32;3.75;;;;;;;;;;5005522;28;20196;-66
2022/02/06 05:40:50;;;;;;;10.82;3.78;;;;;;;;;;5014661;28;20049;-66
2022/02/06 05:43:17;;;;;;;10.77;3.95;;;;;;;;;;5011406;28;20053;-66
2022/02/06 05:45:44;;;;;;;10.52;4.22;;;;;;;;;;5019131;28;20128;-66
2022/02/06 05:48:10;;;;;;;12.30;4.30;;;;;;;;;;5025090;28;20049;-66
2022/02/06 05:50:37;;;;;;;9.25;3.72;;;;;;;;;;5028561;28;20064;-66
2022/02/06 05:53:04;;;;;;;12.43;4.35;;;;;;;;;;5025540;28;20239;-66
2022/02/06 05:55:30;;;;;;;10.00;3.70;;;;;;;;;;4990929;28;20064;-66
2022/02/06 05:57:56;;;;;;;11.50;4.80;;;;;;;;;;5017337;28;20052;-67
2022/02/06 06:00:23;;;;;;;12.68;4.35;;;;;;;;;;5015571;28;20049;-66
2022/02/06 06:02:49;;;;;;;5.57;3.65;;;;;;;;;;5022689;28;20053;-66
2022/02/06 06:05:15;;;;;;;10.20;4.18;;;;;;;;;;5019237;28;20285;-66
2022/02/06 06:07:42;;;;;;;14.10;4.47;;;;;;;;;;5010169;28;20378;-66
2022/02/06 06:10:09;;;;;;;11.98;4.03;;;;;;;;;;5022092;28;20050;-66
2022/02/06 06:12:36;;;;;;;14.02;4.97;;;;;;;;;;5014937;28;20053;-66
2022/02/06 06:15:03;;;;;;;9.50;4.18;;;;;;;;;;5020421;28;20060;-66
2022/02/06 06:17:30;;;;;;;11.10;4.38;;;;;;;;;;5015074;28;20053;-66
2022/02/06 06:19:57;;;;;;;13.20;4.80;;;;;;;;;;5017090;28;20053;-66
2022/02/06 06:22:23;;;;;;;9.70;4.47;;;;;;;;;;5017489;28;20060;-66
2022/02/06 06:24:56;;;;;;;14.85;5.68;;;;;;;;;;5014274;28;20499;-66
2022/02/06 06:27:23;;;;;;;11.50;5.18;;;;;;;;;;5022853;28;20504;-66
2022/02/06 06:29:49;;;;;;;9.57;4.53;;;;;;;;;;5014103;28;20149;-66
2022/02/06 06:32:15;;;;;;;10.38;4.18;;;;;;;;;;5021103;28;20501;-66
2022/02/06 06:34:42;;;;;;;12.25;4.30;;;;;;;;;;5007599;28;20054;-66
2022/02/06 06:37:08;;;;;;;10.48;4.45;;;;;;;;;;5019662;28;20045;-66
2022/02/06 06:39:43;;;;;;;8.20;4.63;;;;;;;;;;5022184;28;20045;-66
2022/02/06 06:42:10;;;;;;;9.60;4.47;;;;;;;;;;4996314;28;20057;-66
2022/02/06 06:44:37;;;;;;;10.38;4.70;;;;;;;;;;5022485;28;20053;-66
2022/02/06 06:47:04;;;;;;;7.03;4.13;;;;;;;;;;5009147;28;20131;-66
2022/02/06 06:49:31;;;;;;;8.73;4.47;;;;;;;;;;5029392;28;20045;-66
2022/02/06 06:51:58;;;;;;;10.05;5.03;;;;;;;;;;5013633;28;20045;-66
2022/02/06 06:54:25;;;;;;;7.57;5.10;;;;;;;;;;5021312;28;20057;-66
2022/02/06 06:59:46;;;;;;;6.80;4.00;;;;;;;;;;5013754;28;20049;-66
2022/02/06 07:04:42;;;;;;;8.00;3.85;;;;;;;;;;5008201;28;20056;-66
2022/02/06 07:07:08;;;;;;;7.35;4.35;;;;;;;;;;5030110;28;20048;-66
2022/02/06 07:09:35;;;;;;;8.93;4.47;;;;;;;;;;5031644;28;20049;-66
2022/02/06 07:12:02;;;;;;;11.18;4.85;;;;;;;;;;5040579;28;20048;-66
2022/02/06 07:14:28;;;;;;;7.63;4.38;;;;;;;;;;5037476;28;20333;-66
2022/02/06 07:16:55;;;;;;;7.35;4.20;;;;;;;;;;5028861;28;20052;-67
2022/02/06 07:19:21;;;;;;;9.57;4.68;;;;;;;;;;5040038;28;20057;-67
2022/02/06 07:21:47;;;;;;;12.63;4.57;;;;;;;;;;5014618;28;20072;-66
2022/02/06 07:24:18;;;;;;;5.63;3.97;;;;;;;;;;5022069;28;20504;-66
2022/02/06 07:26:48;;;;;;;5.75;3.85;;;;;;;;;;5013678;28;20057;-66
2022/02/06 07:29:16;;;;;;;;;;;;;;;;;;5017846;28;20076;-66
2022/02/06 07:31:45;;;;;;;;;;;;;;;;;;5016613;28;19924;-67
2022/02/06 07:34:11;;;;;;;7.50;3.97;;;;;;;;;;5014263;28;19928;-67
2022/02/06 07:36:38;;;;;;;7.05;4.15;;;;;;;;;;5021264;28;20050;-67
2022/02/06 07:39:04;;;;;;;8.63;3.92;;;;;;;;;;5012470;28;20145;-67
2022/02/06 07:41:30;;;;;;;7.35;4.13;;;;;;;;;;5019185;28;20053;-66
2022/02/06 07:43:57;;;;;;;8.07;4.47;;;;;;;;;;5007227;28;20049;-67
2022/02/06 07:46:30;;;;;;;8.02;4.32;;;;;;;;;;5015757;28;20518;-67
2022/02/06 07:49:00;;;;;;;9.20;4.10;;;;;;;;;;5025383;28;20044;-66
2022/02/06 07:51:26;;;;;;;7.47;4.18;;;;;;;;;;5040229;28;20049;-67
2022/02/06 07:53:53;;;;;;;7.10;3.95;;;;;;;;;;5040648;28;20053;-66
2022/02/06 07:56:19;;;;;;;7.35;4.38;;;;;;;;;;5032209;28;20051;-67
2022/02/06 07:58:46;;;;;;;9.52;5.03;;;;;;;;;;5033143;28;20271;-67
2022/02/06 08:01:12;;;;;;;10.57;5.00;;;;;;;;;;5029628;28;20049;-67
2022/02/06 08:03:38;;;;;;;9.82;4.43;;;;;;;;;;5040570;28;20049;-67
2022/02/06 08:06:05;;;;;;;8.50;4.47;;;;;;;;;;5029341;28;20546;-67
2022/02/06 08:08:33;;;;;;;10.98;5.03;;;;;;;;;;5039227;28;20069;-66
2022/02/06 08:11:01;;;;;;;10.07;4.60;;;;;;;;;;5036783;28;20049;-66
2022/02/06 08:13:40;;;;;;;9.98;4.20;;;;;;;;;;5012979;28;20063;-66
2022/02/06 08:16:06;;;;;;;10.98;4.20;;;;;;;;;;5017144;28;20060;-66
2022/02/06 08:18:36;;;;;;;9.88;4.72;;;;;;;;;;5012275;28;20057;-67
2022/02/06 08:21:03;;;;;;;10.35;5.60;;;;;;;;;;5019431;28;20087;-67
2022/02/06 08:23:44;;;;;;;8.10;4.82;;;;;;;;;;5012093;28;20079;-66
2022/02/06 08:26:10;;;;;;;8.80;4.25;;;;;;;;;;5015131;28;20483;-67
2022/02/06 08:28:38;;;;;;;5.68;3.50;;;;;;;;;;5015452;28;20141;-66
2022/02/06 08:31:04;;;;;;;8.40;4.15;;;;;;;;;;5011482;28;20403;-66
2022/02/06 08:33:31;;;;;;;8.07;4.18;;;;;;;;;;5019783;28;20096;-67
2022/02/06 08:35:57;;;;;;;8.60;4.70;;;;;;;;;;5011092;28;20057;-66
2022/02/06 08:38:24;;;;;;;7.60;4.45;;;;;;;;;;5020103;28;20083;-66
2022/02/06 08:40:50;;;;;;;16.77;4.72;;;;;;;;;;5004642;28;20053;-66
2022/02/06 08:43:17;;;;;;;5.57;3.50;;;;;;;;;;5018978;28;20139;-66
2022/02/06 08:45:43;;;;;;;5.93;3.55;;;;;;;;;;5019769;28;20618;-66
2022/02/06 08:48:09;;;;;;;4.28;3.40;;;;;;;;;;5018365;28;20068;-66
2022/02/06 08:50:35;;;;;;;3.33;2.20;;;;;;;;;;5040573;28;20049;-66
2022/02/06 08:53:02;;;;;;;4.60;2.63;;;;;;;;;;5027184;28;20065;-66
2022/02/06 08:55:29;;;;;;;3.95;2.17;;;;;;;;;;5036078;28;20056;-66
2022/02/06 08:57:56;;;;;;;3.17;1.80;;;;;;;;;;5013121;28;20059;-66
2022/02/06 09:00:24;;;;;;;5.85;2.10;;;;;;;;;;5039230;28;20387;-66
2022/02/06 09:02:51;;;;;;;4.05;2.00;;;;;;;;;;5039493;28;20052;-66
2022/02/06 09:05:18;;;;;;;6.10;2.35;;;;;;;;;;5032009;28;20059;-65
2022/02/06 09:07:45;;;;;;;3.38;1.90;;;;;;;;;;5016580;28;20050;-65
2022/02/06 09:10:13;;;;;;;5.43;2.08;;;;;;;;;;5007316;28;20072;-65
2022/02/06 09:12:44;;;;;;;3.58;1.77;;;;;;;;;;5019213;28;20045;-65
2022/02/06 09:15:14;;;;;;;2.90;1.98;;;;;;;;;;5009954;28;20527;-66
2022/02/06 09:17:41;;;;;;;2.78;2.00;;;;;;;;;;5019735;28;20046;-66
2022/02/06 09:20:07;;;;;;;1.85;1.55;;;;;;;;;;5014384;28;20482;-66
2022/02/06 09:22:35;;;;;;;3.60;2.25;;;;;;;;;;5008932;28;20501;-66
2022/02/06 09:25:02;;;;;;;5.45;2.20;;;;;;;;;;5018751;28;20060;-66
2022/02/06 09:27:28;;;;;;;9.50;2.42;;;;;;;;;;5011189;28;20546;-66
2022/02/06 09:29:55;;;;;;;4.50;1.98;;;;;;;;;;5019068;28;20322;-66
2022/02/06 09:37:30;;;;;;;5.25;1.90;;;;;;;;;;5019662;28;20049;-66
2022/02/06 09:39:57;;;;;;;3.58;1.98;;;;;;;;;;5015150;28;20049;-66
2022/02/06 09:42:24;;;;;;;2.85;1.98;;;;;;;;;;5023701;28;20053;-65
2022/02/06 09:44:51;;;;;;;4.88;2.10;;;;;;;;;;5014596;28;20056;-66
2022/02/06 09:47:22;;;;;;;3.47;2.10;;;;;;;;;;5022443;28;20089;-65
2022/02/06 09:49:49;;;;;;;4.25;2.13;;;;;;;;;;5029025;28;20366;-65
2022/02/06 09:52:24;;;;;;;5.80;2.03;;;;;;;;;;5043440;28;20049;-65
2022/02/06 09:54:52;;;;;;;8.80;2.63;;;;;;;;;;5035392;28;20049;-65
2022/02/06 09:57:25;;;;;;;6.35;2.63;;;;;;;;;;5038189;28;20044;-65
2022/02/06 09:59:53;;;;;;;7.72;2.60;;;;;;;;;;5022929;28;20049;-65
2022/02/06 10:02:21;;;;;;;5.20;2.30;;;;;;;;;;5009993;28;20058;-65
2022/02/06 10:04:48;;;;;;;3.80;2.13;;;;;;;;;;5018360;28;20053;-65
2022/02/06 10:07:18;;;;;;;4.68;2.10;;;;;;;;;;5014414;28;20783;-65
2022/02/06 10:09:56;;;;;;;5.07;1.80;;;;;;;;;;5022532;28;20490;-65
2022/02/06 10:12:22;;;;;;;7.38;2.38;;;;;;;;;;5014005;28;20241;-66
2022/02/06 10:14:49;;;;;;;4.63;2.00;;;;;;;;;;5019896;28;20171;-66
2022/02/06 10:17:17;;;;;;;5.13;1.90;;;;;;;;;;5016896;28;20049;-66
2022/02/06 10:19:50;;;;;;;3.85;1.90;;;;;;;;;;5010822;28;20064;-67
2022/02/06 10:22:25;;;;;;;3.00;1.15;;;;;;;;;;5022350;28;20414;-68
2022/02/06 10:24:59;;;;;;;5.38;1.88;;;;;;;;;;5013551;28;20089;-67
2022/02/06 10:27:45;;;;;;;5.18;1.90;;;;;;;;;;5021875;28;20482;-65
2022/02/06 10:30:43;;;;;;;1.42;1.10;;;;;;;;;;5009126;28;20487;-65
2022/02/06 10:33:10;;;;;;;2.65;1.30;;;;;;;;;;4973076;28;20049;-65
2022/02/06 10:35:37;;;;;;;3.67;1.58;;;;;;;;;;5013604;28;20049;-66
2022/02/06 10:38:19;;;;;;;2.92;1.48;;;;;;;;;;5021521;28;20064;-67
2022/02/06 10:41:00;;;;;;;1.55;1.10;;;;;;;;;;5013771;28;20057;-67
2022/02/06 10:43:27;;;;;;;6.15;1.77;;;;;;;;;;5019784;28;20053;-67
2022/02/06 10:46:04;;;;;;;4.25;1.48;;;;;;;;;;4996175;28;20076;-66
2022/02/06 10:48:30;;;;;;;2.83;1.25;;;;;;;;;;5022259;28;20141;-65
2022/02/06 10:50:57;;;;;;;2.88;1.23;;;;;;;;;;5041672;28;20049;-66
2022/02/06 10:53:23;;;;;;;3.55;1.58;;;;;;;;;;5033815;28;20068;-67
2022/02/06 10:56:01;;;;;;;3.83;1.50;;;;;;;;;;5033548;28;20160;-66
2022/02/06 10:58:31;;;;;;;4.63;1.35;;;;;;;;;;5008802;28;20132;-66
2022/02/06 11:00:59;;;;;;;4.38;1.25;;;;;;;;;;5016638;28;20050;-65
2022/02/06 11:03:31;;;;;;;4.40;1.40;;;;;;;;;;5015387;28;20045;-66
2022/02/06 11:06:07;;;;;;;4.35;1.70;;;;;;;;;;5021288;28;20491;-65
2022/02/06 11:08:35;;;;;;;5.43;1.70;;;;;;;;;;5019994;28;20049;-66
2022/02/06 11:11:03;;;;;;;2.83;1.40;;;;;;;;;;5010554;28;20127;-66
2022/02/06 11:13:31;;;;;;;2.92;1.65;;;;;;;;;;5013877;28;20049;-65
2022/02/06 11:16:00;;;;;;;6.68;1.45;;;;;;;;;;5008837;28;20276;-66
2022/02/06 11:18:39;;;;;;;6.72;1.40;;;;;;;;;;5021459;28;20056;-67
2022/02/06 11:21:09;;;;;;;5.65;1.05;;;;;;;;;;5012782;28;20756;-67
2022/02/06 11:23:39;;;;;;;4.25;1.23;;;;;;;;;;5020934;28;20046;-66
2022/02/06 11:26:06;;;;;;;1.95;1.00;;;;;;;;;;4998725;28;20748;-66
2022/02/06 11:28:33;;;;;;;3.28;1.50;;;;;;;;;;5008927;28;20045;-66
2022/02/06 11:31:04;;;;;;;5.38;1.50;;;;;;;;;;5021679;28;20120;-66
2022/02/06 11:33:31;;;;;;;4.78;1.20;;;;;;;;;;5012557;28;20526;-68
2022/02/06 11:36:06;;;;;;;3.60;1.30;;;;;;;;;;5020618;28;20422;-66
2022/02/06 11:44:46;;;;;;;2.58;1.20;;;;;;;;;;5012103;28;20404;-67
2022/02/06 11:47:21;;;;;;;3.70;1.20;;;;;;;;;;5020701;28;20145;-68
2022/02/06 11:49:48;;;;;;;4.22;1.45;;;;;;;;;;5012908;28;20491;-68
2022/02/06 11:52:15;;;;;;;1.50;1.20;;;;;;;;;;5020978;28;20386;-68
2022/02/06 11:54:47;;;;;;;7.28;1.88;;;;;;;;;;5014386;28;20045;-69
2022/02/06 11:57:24;;;;;;;1.10;0.60;;;;;;;;;;4989593;28;20054;-70
2022/02/06 12:00:06;;;;;;;0.47;0.40;;;;;;;;;;5000671;28;20068;-68
2022/02/06 12:02:33;;;;;;;1.83;0.50;;;;;;;;;;4992522;28;20058;-68
2022/02/06 12:05:09;;;;;;;2.10;0.50;;;;;;;;;;4999669;28;20072;-68
2022/02/06 12:07:54;;;;;;;4.97;1.73;;;;;;;;;;5010431;28;20059;-68
2022/02/06 12:10:40;;;;;;;0.60;0.20;;;;;;;;;;5035318;28;20133;-68
2022/02/06 12:13:12;;;;;;;1.67;0.30;;;;;;;;;;5030658;28;20075;-68
2022/02/06 12:15:52;;;;;;;2.92;0.82;;;;;;;;;;5038406;28;20514;-67
2022/02/06 12:18:25;;;;;;;1.45;0.30;;;;;;;;;;5012179;28;20077;-67
2022/02/06 12:20:56;;;;;;;0.65;0.20;;;;;;;;;;5016591;28;20057;-67
2022/02/06 12:23:35;;;;;;;3.78;0.43;;;;;;;;;;5012711;28;20088;-67
2022/02/06 12:26:03;;;;;;;2.25;0.50;;;;;;;;;;5011131;28;20060;-67
2022/02/06 12:28:31;;;;;;;1.60;0.50;;;;;;;;;;5017352;28;20064;-67
2022/02/06 12:31:24;;;;;;;1.13;0.40;;;;;;;;;;5011930;28;20061;-68
2022/02/06 12:33:57;;;;;;;0.65;0.40;;;;;;;;;;5019360;28;20084;-67
2022/02/06 12:37:07;;;;;;;2.78;0.65;;;;;;;;;;5007085;28;20054;-67
2022/02/06 12:39:36;;;;;;;3.15;0.68;;;;;;;;;;5018994;28;20692;-67
2022/02/06 12:42:03;;;;;;;4.28;0.50;;;;;;;;;;5012249;28;20053;-67
2022/02/06 12:44:30;;;;;;;2.15;0.70;;;;;;;;;;5020077;28;20049;-68
2022/02/06 12:47:03;;;;;;;1.55;0.60;;;;;;;;;;5018737;28;20533;-67
2022/02/06 12:49:34;;;;;;;3.90;1.50;;;;;;;;;;5018077;28;20053;-69
2022/02/06 12:52:02;;;;;;;1.55;0.90;;;;;;;;;;5016843;28;20095;-67
2022/02/06 12:54:28;;;;;;;4.28;1.15;;;;;;;;;;5012811;28;20053;-67
2022/02/06 12:56:55;;;;;;;2.25;0.70;;;;;;;;;;5018825;28;20064;-66
2022/02/06 12:59:23;;;;;;;5.95;1.77;;;;;;;;;;5011228;28;20443;-66
2022/02/06 13:01:50;;;;;;;6.03;2.20;;;;;;;;;;5019389;28;20053;-67
2022/02/06 13:04:17;;;;;;;9.35;3.13;;;;;;;;;;5007500;28;20060;-66
2022/02/06 13:06:45;;;;;;;5.45;2.35;;;;;;;;;;5014328;28;20049;-67
2022/02/06 13:09:17;;;;;;;1.93;1.13;;;;;;;;;;5024411;28;20076;-66
2022/02/06 13:11:52;;;;;;;4.10;1.20;;;;;;;;;;5017509;28;20128;-66
2022/02/06 13:14:40;;;;;;;4.78;0.80;;;;;;;;;;5043732;28;20079;-66
2022/02/06 13:18:04;;;;;;;4.55;0.88;;;;;;;;;;5031947;28;20115;-66
2022/02/06 13:20:27;;;;;;;8.63;1.08;;;;;;;;;;5026461;28;20549;-66
2022/02/06 13:23:06;;;;;;;8.00;1.02;;;;;;;;;;5014143;28;20064;-66
2022/02/06 13:25:48;;;;;;;2.33;0.75;;;;;;;;;;5022954;28;20053;-67
2022/02/06 13:31:40;;;;;;;4.65;0.90;;;;;;;;;;4976570;28;20085;-66
2022/02/06 13:39:08;;;;;;;7.43;1.77;;;;;;;;;;4972626;28;20058;-65
2022/02/06 13:41:35;;;;;;;6.53;1.40;;;;;;;;;;4984391;28;20517;-66
2022/02/06 13:44:03;;;;;;;4.85;1.33;;;;;;;;;;4999706;28;20482;-66
2022/02/06 13:46:34;;;;;;;8.18;1.40;;;;;;;;;;4987496;28;20049;-66
2022/02/06 13:49:01;;;;;;;9.65;1.52;;;;;;;;;;5008457;28;20578;-67
2022/02/06 13:51:30;;;;;;;9.32;1.40;;;;;;;;;;4996535;28;20054;-67
2022/02/06 13:54:03;;;;;;;5.53;1.25;;;;;;;;;;4998962;28;20055;-66
2022/02/06 13:56:30;;;;;;;7.50;1.40;;;;;;;;;;4991058;28;20061;-66
2022/02/06 13:59:07;;;;;;;11.32;1.00;;;;;;;;;;4980771;28;20411;-65
2022/02/06 14:01:41;;;;;;;8.20;1.40;;;;;;;;;;4988470;28;20258;-66
2022/02/06 14:04:18;;;;;;;6.00;1.13;;;;;;;;;;4999424;28;20057;-66
2022/02/06 14:06:52;;;;;;;6.25;0.82;;;;;;;;;;5036481;28;20049;-66
2022/02/06 14:09:29;;;;;;;0.95;0.55;;;;;;;;;;5028822;28;20057;-66
2022/02/06 14:12:02;;;;;;;7.45;1.05;;;;;;;;;;5019486;28;20049;-66
2022/02/06 14:14:29;;;;;;;4.82;1.27;;;;;;;;;;5007853;28;20084;-66
2022/02/06 14:17:21;;;;;;;3.88;1.08;;;;;;;;;;5022583;28;20060;-67
2022/02/06 14:19:48;;;;;;;9.30;1.02;;;;;;;;;;4996641;28;20053;-66
2022/02/06 14:22:24;;;;;;;6.97;1.08;;;;;;;;;;5023297;28;20616;-66
2022/02/06 14:24:52;;;;;;;6.30;1.40;;;;;;;;;;5011304;28;20487;-66
2022/02/06 14:27:25;;;;;;;11.10;2.10;;;;;;;;;;5016297;28;20046;-67
2022/02/06 14:29:57;;;;;;;11.68;1.90;;;;;;;;;;5017275;28;20430;-67
2022/02/06 14:32:24;;;;;;;8.68;1.80;;;;;;;;;;5014268;28;20442;-66
2022/02/06 14:35:17;;;;;;;12.90;1.67;;;;;;;;;;5014195;28;20050;-66
2022/02/06 14:37:44;;;;;;;8.32;1.15;;;;;;;;;;5023834;28;20071;-67
2022/02/06 14:42:48;;;;;;;13.40;2.03;;;;;;;;;;5014157;28;20553;-66
2022/02/06 14:45:15;;;;;;;9.20;1.30;;;;;;;;;;5020587;28;20087;-66
2022/02/06 14:47:41;;;;;;;5.82;1.15;;;;;;;;;;5006846;28;20080;-66
2022/02/06 14:50:11;;;;;;;6.03;0.98;;;;;;;;;;5029186;28;20063;-66
2022/02/06 14:52:37;;;;;;;5.25;1.00;;;;;;;;;;5036395;28;20604;-67
2022/02/06 14:55:04;;;;;;;6.65;1.00;;;;;;;;;;5012879;28;20754;-66
2022/02/06 14:57:30;;;;;;;7.60;1.10;;;;;;;;;;5021537;28;20426;-66
2022/02/06 14:59:56;;;;;;;9.02;1.60;;;;;;;;;;5002212;28;20054;-66
2022/02/06 15:02:23;;;;;;;6.90;1.27;;;;;;;;;;5005648;28;20149;-66
2022/02/06 15:04:49;;;;;;;6.82;1.00;;;;;;;;;;5004656;28;20072;-66
2022/02/06 15:07:17;;;;;;;5.40;1.00;;;;;;;;;;5000829;28;20046;-66
2022/02/06 15:09:45;;;;;;;5.22;1.27;;;;;;;;;;5006810;28;20391;-66
2022/02/06 15:12:11;;;;;;;6.18;1.10;;;;;;;;;;5008385;28;20060;-65
2022/02/06 15:14:37;;;;;;;7.55;1.30;;;;;;;;;;5019418;28;20042;-66
2022/02/06 15:17:04;;;;;;;7.55;1.50;;;;;;;;;;5010798;28;20056;-66
2022/02/06 15:19:32;;;;;;;5.55;0.90;;;;;;;;;;5031236;28;20061;-66
2022/02/06 15:21:59;;;;;;;4.05;0.90;;;;;;;;;;5014776;28;20041;-66
2022/02/06 15:24:26;;;;;;;4.15;0.85;;;;;;;;;;5013469;28;20438;-66
2022/02/06 15:26:52;;;;;;;8.23;1.15;;;;;;;;;;5013348;28;20053;-66
2022/02/06 15:29:19;;;;;;;12.07;1.48;;;;;;;;;;5025683;28;20611;-66
2022/02/06 15:31:46;;;;;;;6.65;1.67;;;;;;;;;;5041019;28;20659;-66
2022/02/06 15:34:15;;;;;;;7.38;1.42;;;;;;;;;;5034480;28;20182;-66
2022/02/06 15:36:48;;;;;;;5.57;1.30;;;;;;;;;;5039543;28;20051;-66
2022/02/06 15:39:21;;;;;;;3.35;1.20;;;;;;;;;;5035644;28;20041;-66
2022/02/06 15:41:51;;;;;;;6.63;1.20;;;;;;;;;;5040654;28;20052;-66
2022/02/06 15:44:18;;;;;;;5.60;1.38;;;;;;;;;;5041671;28;20052;-66
2022/02/06 15:46:44;;;;;;;4.88;1.23;;;;;;;;;;5027927;28;20140;-66
2022/02/06 15:49:10;;;;;;;3.60;1.10;;;;;;;;;;5018851;28;20050;-66
2022/02/06 15:51:37;;;;;;;6.60;1.15;;;;;;;;;;5020058;28;20056;-66
2022/02/06 15:54:04;;;;;;;5.75;1.45;;;;;;;;;;5018251;28;20045;-66
2022/02/06 15:56:31;;;;;;;7.95;1.33;;;;;;;;;;5021334;28;20045;-66
2022/02/06 15:58:57;;;;;;;5.05;1.15;;;;;;;;;;5017545;28;20049;-65
2022/02/06 16:01:25;;;;;;;4.90;1.13;;;;;;;;;;5017168;28;20045;-65
2022/02/06 16:03:52;;;;;;;5.22;1.40;;;;;;;;;;5012691;28;20139;-65
2022/02/06 16:06:18;;;;;;;3.95;1.42;;;;;;;;;;5015313;28;20514;-65
2022/02/06 16:08:44;;;;;;;6.75;1.33;;;;;;;;;;5007457;28;20494;-65
2022/02/06 16:11:11;;;;;;;9.63;1.30;;;;;;;;;;5020095;28;20489;-66
2022/02/06 16:13:37;;;;;;;5.55;1.08;;;;;;;;;;5017941;28;20076;-66
2022/02/06 16:16:04;;;;;;;4.78;1.15;;;;;;;;;;5011921;28;20049;-65
2022/02/06 16:18:30;;;;;;;4.10;1.10;;;;;;;;;;5016477;28;20045;-65
2022/02/06 16:20:56;;;;;;;11.05;2.15;;;;;;;;;;5004214;28;20057;-65
2022/02/06 16:23:25;;;;;;;5.28;1.20;;;;;;;;;;5019837;28;20045;-65
2022/02/06 16:25:51;;;;;;;5.72;1.30;;;;;;;;;;5009267;28;20051;-65
2022/02/06 16:28:18;;;;;;;11.77;1.67;;;;;;;;;;5018409;28;20052;-65
2022/02/06 16:30:44;;;;;;;3.20;1.00;;;;;;;;;;5020379;28;20056;-66
2022/02/06 16:33:11;;;;;;;8.45;1.83;;;;;;;;;;5005935;28;20333;-65
2022/02/06 16:35:37;;;;;;;7.20;2.03;;;;;;;;;;5013592;28;20053;-65
2022/02/06 16:38:23;;;;;;;7.88;1.50;;;;;;;;;;5011004;28;20053;-65
2022/02/06 16:40:50;;;;;;;7.40;1.95;;;;;;;;;;5015820;28;20053;-65
2022/02/06 16:43:17;;;;;;;12.85;2.28;;;;;;;;;;5003959;28;20438;-65
2022/02/06 16:45:43;;;;;;;8.20;1.65;;;;;;;;;;5014022;28;20053;-65
2022/02/06 16:48:09;;;;;;;9.38;2.05;;;;;;;;;;5005110;28;20370;-65
2022/02/06 16:50:37;;;;;;;12.73;1.90;;;;;;;;;;5012833;28;20037;-65
2022/02/06 16:53:03;;;;;;;12.55;3.28;;;;;;;;;;5018373;28;20045;-65
2022/02/06 16:55:29;;;;;;;2.90;0.98;;;;;;;;;;5009970;28;20506;-65
2022/02/06 16:57:56;;;;;;;5.80;1.20;;;;;;;;;;5017112;28;20059;-65
2022/02/06 17:00:22;;;;;;;6.40;1.35;;;;;;;;;;5005976;28;20518;-65
2022/02/06 17:02:49;;;;;;;8.95;2.15;;;;;;;;;;5012885;28;20060;-65
2022/02/06 17:05:15;;;;;;;6.47;1.65;;;;;;;;;;5007928;28;20049;-65
2022/02/06 17:07:41;;;;;;;6.35;1.40;;;;;;;;;;5017158;28;20045;-65